Flight Track Log - Related Links

Times and Time Zones

All times are in EDT time to prevent confusion due to time zone crossing. See the SKQ45 flight status page for this flight to view local times or setup timezone preferences in your user account.

Time Position Orientation Groundspeed Altitude Reporting Facility
EDT Latitude Longitude Course Direction KTS MPH feet Rate Location/Type
Mon 11:04:40 PM 37.0814 -88.7517 39° Northeast 187 215 3,800  Level Kansas City Center
Mon 11:05:06 PM 37.1031 -88.7756 319° Northwest 228 262 5,200 1,535 Climbing Memphis Center
Mon 11:06:06 PM 37.1411 -88.8139 321° Northwest 192 221 6,000 800 Climbing Memphis Center
Mon 11:07:06 PM 37.1811 -88.8600 317° Northwest 186 214 6,800 800 Climbing Memphis Center
Mon 11:08:06 PM 37.2256 -88.9086 319° Northwest 192 221 7,600 750 Climbing Memphis Center
Mon 11:09:46 PM 37.2936 -88.9800 320° Northwest 210 242 8,800 750 Climbing Kansas City Center
Mon 11:10:46 PM 37.3383 -89.0297 319° Northwest 213 245 9,600 639 Climbing Kansas City Center
Mon 11:11:48 PM 37.3875 -89.0744 324° Northwest 217 250 10,100 197 Climbing Kansas City Center
Mon 11:12:48 PM 37.4394 -89.1242 323° Northwest 230 265 10,000  Descending Kansas City Center
Mon 11:13:47 PM 37.4942 -89.1733 325° Northwest 239 275 10,100 49 Climbing Kansas City Center
Mon 11:14:50 PM 37.5486 -89.2256 323° Northwest 244 281 10,100  Level Kansas City Center
Mon 11:15:51 PM 37.6017 -89.2778 322° Northwest 243 280 10,100 -50 Level Kansas City Center
Mon 11:16:50 PM 37.6406 -89.3447 306° West 238 274 10,000  Descending Kansas City Center
Mon 11:17:52 PM 37.6889 -89.4178 310° West 237 273 10,100 49 Climbing Kansas City Center
Mon 11:18:53 PM 37.7319 -89.4786 312° West 235 270 10,100 -50 Level Kansas City Center
Mon 11:19:53 PM 37.7747 -89.5414 311° West 234 269 10,000  Descending Kansas City Center
Mon 11:20:55 PM 37.8172 -89.6042 311° West 236 272 10,100  Climbing Kansas City Center
Mon 11:21:57 PM 37.8631 -89.6714 311° West 239 275 10,000 -318 Descending Kansas City Center
Mon 11:23:07 PM 37.9092 -89.6844 347° North 246 283 9,400 -527 Descending FAA TRACON SMA TRACON (SMA)
Mon 11:23:28 PM 37.9247 -89.7122 305° West 246 283 9,200 -600 Descending FAA TRACON SMA TRACON (SMA)
Mon 11:23:47 PM 37.9386 -89.7311 313° West 245 282 9,000 -615 Descending FAA TRACON SMA TRACON (SMA)
Mon 11:24:07 PM 37.9531 -89.7500 314° West 244 281 8,800 -585 Descending FAA TRACON SMA TRACON (SMA)
Mon 11:24:28 PM 37.9689 -89.7761 308° West 242 278 8,600 -450 Descending FAA TRACON SMA TRACON (SMA)
Mon 11:24:47 PM 37.9828 -89.7961 311° West 242 278 8,500 -462 Descending FAA TRACON SMA TRACON (SMA)
Mon 11:25:07 PM 37.9953 -89.8167 308° West 241 277 8,300 -585 Descending FAA TRACON SMA TRACON (SMA)
Mon 11:25:28 PM 38.0122 -89.8414 311° West 241 277 8,100 -450 Descending FAA TRACON SMA TRACON (SMA)
Mon 11:25:47 PM 38.0256 -89.8611 311° West 240 276 8,000 -308 Descending FAA TRACON SMA TRACON (SMA)
Mon 11:26:07 PM 38.0392 -89.8806 312° West 239 275 7,900 -146 Descending FAA TRACON SMA TRACON (SMA)
Mon 11:26:28 PM 38.0553 -89.9064 308° West 241 277 7,900  Level FAA TRACON SMA TRACON (SMA)
Mon 11:26:47 PM 38.0678 -89.9256 310° West 235 270 7,900  Level FAA TRACON SMA TRACON (SMA)
Mon 11:27:07 PM 38.0806 -89.9444 311° West 231 266 7,900  Level FAA TRACON SMA TRACON (SMA)
Mon 11:27:28 PM 38.0956 -89.9703 306° West 230 265 7,900  Level FAA TRACON SMA TRACON (SMA)
Mon 11:27:47 PM 38.1089 -89.9883 313° West 230 265 7,900  Level FAA TRACON SMA TRACON (SMA)
Mon 11:28:07 PM 38.1219 -90.0069 312° West 231 266 7,900  Level FAA TRACON SMA TRACON (SMA)
Mon 11:28:28 PM 38.1467 -90.0203 337° Northwest 248 285 7,900  Level FAA TRACON SMA TRACON (SMA)
Mon 11:28:47 PM 38.1697 -90.0219 357° North 268 308 7,900  Level FAA TRACON SMA TRACON (SMA)
Mon 11:29:07 PM 38.1931 -90.0233 357° North 273 314 7,900  Level FAA TRACON SMA TRACON (SMA)
Mon 11:29:28 PM 38.2222 -90.0239 359° North 273 314 7,900  Level FAA TRACON SMA TRACON (SMA)
Mon 11:29:47 PM 38.2453 -90.0256 357° North 271 312 7,900  Level FAA TRACON SMA TRACON (SMA)
Mon 11:30:07 PM 38.2683 -90.0264 358° North 270 311 7,900 -146 Level FAA TRACON SMA TRACON (SMA)
Mon 11:30:28 PM 38.2975 -90.0275 358° North 270 311 7,800 -300 Descending FAA TRACON SMA TRACON (SMA)
Mon 11:30:47 PM 38.3203 -90.0294 356° North 271 312 7,700 -462 Descending FAA TRACON SMA TRACON (SMA)
Mon 11:31:07 PM 38.3439 -90.0306 358° North 273 314 7,500 -585 Descending FAA TRACON SMA TRACON (SMA)
Mon 11:31:28 PM 38.3731 -90.0322 357° North 273 314 7,300 -450 Descending FAA TRACON SMA TRACON (SMA)
Mon 11:31:47 PM 38.3964 -90.0347 355° North 272 313 7,200 -462 Descending FAA TRACON SMA TRACON (SMA)
Mon 11:32:07 PM 38.4256 -90.0367 357° North 273 314 7,000 -585 Descending FAA TRACON SMA TRACON (SMA)
Mon 11:32:28 PM 38.4486 -90.0383 357° North 272 313 6,800 -450 Descending FAA TRACON SMA TRACON (SMA)
Mon 11:32:47 PM 38.4717 -90.0406 356° North 270 311 6,700 -462 Descending FAA TRACON SMA TRACON (SMA)
Mon 11:33:07 PM 38.4947 -90.0436 354° North 270 311 6,500 -732 Descending FAA TRACON SMA TRACON (SMA)
Mon 11:33:28 PM 38.5236 -90.0475 354° North 271 312 6,200 -900 Descending FAA TRACON SMA TRACON (SMA)
Mon 11:33:47 PM 38.5461 -90.0511 353° North 269 310 5,900 -1,077 Descending FAA TRACON SMA TRACON (SMA)
Mon 11:34:07 PM 38.5753 -90.0564 352° North 272 313 5,500 -1,024 Descending FAA TRACON SMA TRACON (SMA)
Mon 11:34:28 PM 38.5972 -90.0608 351° North 266 306 5,200 -900 Descending FAA TRACON SMA TRACON (SMA)
Mon 11:34:47 PM 38.6175 -90.0675 346° North 253 291 4,900 -1,050 Descending FAA TRACON SMA TRACON (SMA)
Mon 11:35:08 PM 38.6383 -90.0831 330° Northwest 231 266 4,500 -1,024 Descending FAA TRACON SMA TRACON (SMA)
Mon 11:35:28 PM 38.6472 -90.1022 301° West 217 250 4,200 -1,231 Descending FAA TRACON SMA TRACON (SMA)
Mon 11:35:47 PM 38.6544 -90.1208 296° West 196 226 3,700 -1,500 Descending FAA TRACON SMA TRACON (SMA)
Mon 11:36:08 PM 38.6642 -90.1428 300° West 183 211 3,200 -1,317 Descending FAA TRACON SMA TRACON (SMA)
Mon 11:36:28 PM 38.6717 -90.1592 300° West 176 203 2,800 -1,077 Descending FAA TRACON SMA TRACON (SMA)
Mon 11:36:47 PM 38.6800 -90.1753 304° West 177 204 2,500 -1,050 Descending FAA TRACON SMA TRACON (SMA)
Mon 11:37:08 PM 38.6906 -90.1967 302° West 183 211 2,100 -1,024 Descending FAA TRACON SMA TRACON (SMA)
Mon 11:37:28 PM 38.6989 -90.2142 301° West 190 219 1,800 -923 Descending FAA TRACON SMA TRACON (SMA)
Mon 11:37:47 PM 38.7067 -90.2297 303° West 176 203 1,500 -750 Descending FAA TRACON SMA TRACON (SMA)
Mon 11:38:08 PM 38.7142 -90.2444 303° West 135 155 1,300 -585 Descending FAA TRACON SMA TRACON (SMA)
Mon 11:38:28 PM 38.7192 -90.2547 302° West 114 131 1,100 -462 Descending FAA TRACON SMA TRACON (SMA)
Mon 11:38:47 PM 38.7244 -90.2656 302° West 113 130 1,000 -450 Descending FAA TRACON SMA TRACON (SMA)
Mon 11:39:08 PM 38.7311 -90.2783 304° West 111 128 800 -571 Descending FAA TRACON SMA TRACON (SMA)

Login

Don't have an account? Register now (free) for customized features, flight alerts, and more!